Time;durP1;ratioP1;P1;durP2;ratioP2;P2;SDS_P1;SDS_P2;PMS_P1;PMS_P2;Temp;Humidity;BMP_temperature;BMP_pressure;BME280_temperature;BME280_humidity;BME280_pressure;Samples;Min_cycle;Max_cycle;Signal;HPM_P1;HPM_P2
2023/07/06 00:02:21;;;;;;;1.52;1.25;;;17.60;99.70;;;17.85;96.78;101019.41;5219426;28;20406;-48
2023/07/06 00:04:53;;;;;;;1.02;0.80;;;17.50;99.70;;;17.83;96.62;101032.59;5218301;28;20049;-48
2023/07/06 00:07:26;;;;;;;1.42;1.13;;;17.50;99.80;;;17.78;96.85;101030.78;5220780;28;20048;-48
2023/07/06 00:09:58;;;;;;;1.88;1.00;;;17.40;99.80;;;17.76;97.05;101035.16;5218164;28;20037;-47
2023/07/06 00:12:30;;;;;;;2.15;1.13;;;17.40;99.90;;;17.70;96.86;101035.94;5219632;28;20066;-47
2023/07/06 00:15:03;;;;;;;1.33;1.10;;;17.40;99.90;;;17.64;96.88;101031.50;5222347;28;20045;-48
2023/07/06 00:17:38;;;;;;;1.60;0.98;;;17.40;99.90;;;17.58;96.83;101031.44;5225304;28;20084;-49
2023/07/06 00:20:13;;;;;;;1.50;1.08;;;17.30;99.90;;;17.56;97.29;101032.31;5224935;28;20057;-48
2023/07/06 00:22:45;;;;;;;1.52;1.23;;;17.20;99.90;;;17.51;97.35;101034.88;5223616;28;20464;-48
2023/07/06 00:25:19;;;;;;;2.08;1.10;;;17.20;99.90;;;17.45;97.79;101024.28;5225323;28;20041;-48
2023/07/06 00:27:53;;;;;;;1.73;1.00;;;17.20;99.90;;;17.43;98.42;101028.66;5224846;28;20052;-48
2023/07/06 00:30:41;;;;;;;1.98;1.20;;;17.10;99.90;;;17.42;98.77;101026.91;5224967;28;20135;-48
2023/07/06 00:33:17;;;;;;;1.40;1.10;;;17.10;99.90;;;17.39;99.22;101032.13;5225006;28;20593;-47
2023/07/06 00:35:50;;;;;;;1.20;1.10;;;17.10;99.90;;;17.34;99.63;101029.47;5225096;28;20595;-48
2023/07/06 00:38:24;;;;;;;1.52;1.10;;;17.00;99.90;;;17.30;99.84;101029.41;5224721;28;20045;-47
2023/07/06 00:40:58;;;;;;;;;;;17.00;99.90;;;17.25;100.00;101031.09;5225218;28;20045;-48
2023/07/06 00:43:49;;;;;;;2.40;1.20;;;16.90;99.90;;;17.19;100.00;101025.75;5224829;28;19924;-48
2023/07/06 00:46:29;;;;;;;1.95;1.10;;;16.90;99.90;;;17.17;100.00;101022.22;5217675;28;20041;-48
2023/07/06 00:49:05;;;;;;;2.63;1.17;;;16.90;99.90;;;17.11;100.00;101022.16;5224104;28;20048;-48
2023/07/06 00:51:43;;;;;;;1.90;1.10;;;16.80;99.90;;;17.05;100.00;101022.94;5224532;28;20091;-48
2023/07/06 00:54:21;;;;;;;1.90;1.20;;;16.70;99.90;;;17.00;100.00;101028.16;5225972;28;20041;-48
2023/07/06 00:56:57;;;;;;;1.63;1.23;;;16.70;99.90;;;16.98;100.00;101026.38;5224345;28;20068;-48
2023/07/06 00:59:31;;;;;;;2.47;1.20;;;16.70;99.90;;;16.94;100.00;101019.28;5224037;28;20437;-48
2023/07/06 01:02:03;;;;;;;2.88;1.52;;;16.70;99.90;;;16.89;100.00;101024.53;5223836;28;20513;-48
2023/07/06 01:04:41;;;;;;;1.25;1.10;;;16.60;99.90;;;16.87;100.00;101026.22;5224215;28;20048;-47
2023/07/06 01:07:20;;;;;;;3.88;1.60;;;16.60;99.90;;;16.85;100.00;101019.19;5224113;28;20041;-47
2023/07/06 01:09:53;;;;;;;1.83;1.25;;;16.60;99.90;;;16.82;100.00;101033.19;5223827;28;20041;-47
2023/07/06 01:12:26;;;;;;;1.25;1.15;;;16.50;99.90;;;16.76;100.00;101030.50;5224328;28;20048;-47
2023/07/06 01:14:59;;;;;;;1.80;1.20;;;16.50;99.90;;;16.69;100.00;101044.38;5224178;28;20052;-48
2023/07/06 01:17:47;;;;;;;1.20;1.10;;;16.40;99.90;;;16.59;100.00;101037.25;5224309;28;20041;-48
2023/07/06 01:20:30;;;;;;;2.65;1.13;;;16.30;99.90;;;16.51;100.00;101045.03;5216339;28;20040;-48
2023/07/06 01:23:42;;;;;;;1.70;1.20;;;16.20;99.90;;;16.46;100.00;101039.69;5223809;28;20052;-47
2023/07/06 01:26:38;;;;;;;1.63;1.40;;;16.20;99.90;;;16.43;100.00;101037.03;5222837;28;20052;-48
2023/07/06 01:29:57;;;;;;;2.30;1.40;;;16.10;99.90;;;16.37;100.00;101036.94;5223396;28;20044;-48
2023/07/06 01:32:37;;;;;;;1.45;1.30;;;16.10;99.90;;;16.31;100.00;101038.59;5206732;28;20044;-48
2023/07/06 01:35:19;;;;;;;1.92;1.20;;;16.10;99.90;;;16.29;100.00;101033.28;5223902;28;20045;-48
2023/07/06 01:37:52;;;;;;;2.10;1.40;;;16.00;99.90;;;16.29;100.00;101042.06;5223486;28;20061;-47
2023/07/06 01:40:25;;;;;;;2.70;1.20;;;16.00;99.90;;;16.32;100.00;101037.72;5223511;28;20529;-48
2023/07/06 01:42:59;;;;;;;2.65;1.33;;;16.00;99.90;;;16.36;100.00;101040.41;5223715;28;20052;-47
2023/07/06 01:45:33;;;;;;;;;;;16.10;99.90;;;16.39;100.00;101040.47;5224158;28;20529;-48
2023/07/06 01:48:10;;;;;;;1.83;1.35;;;16.10;99.90;;;16.42;100.00;101043.13;5223110;28;19924;-47
2023/07/06 01:50:54;;;;;;;1.63;1.40;;;16.10;99.90;;;16.44;100.00;101045.81;5223561;28;20147;-48
2023/07/06 01:53:37;;;;;;;2.38;1.30;;;16.20;99.90;;;16.43;100.00;101044.00;5217976;28;20520;-47
2023/07/06 01:56:23;;;;;;;2.55;1.10;;;16.10;99.90;;;16.42;100.00;101051.00;5223114;28;20044;-47
2023/07/06 01:59:03;;;;;;;2.00;1.42;;;16.10;99.90;;;16.39;100.00;101050.97;5223074;28;20060;-48
2023/07/06 02:01:40;;;;;;;2.17;1.40;;;16.10;99.90;;;16.37;100.00;101051.84;5223302;28;20136;-48
2023/07/06 02:04:20;;;;;;;2.28;1.35;;;16.10;99.90;;;16.32;100.00;101049.13;5223346;28;20056;-47
2023/07/06 02:06:53;;;;;;;1.85;1.10;;;16.00;99.90;;;16.30;100.00;101045.59;5222865;28;20049;-47
2023/07/06 02:09:26;;;;;;;2.42;1.40;;;16.00;99.90;;;16.23;100.00;101043.69;5222831;28;20102;-47
2023/07/06 02:11:59;;;;;;;2.95;1.27;;;16.00;99.90;;;16.19;100.00;101041.91;5222814;28;20048;-47
2023/07/06 02:14:31;;;;;;;2.25;1.25;;;15.90;99.90;;;16.17;100.00;101047.16;5223164;28;20059;-47
2023/07/06 02:17:03;;;;;;;1.88;1.23;;;15.90;99.90;;;16.14;100.00;101049.72;5222705;28;20049;-48
2023/07/06 02:19:38;;;;;;;2.10;1.45;;;15.90;99.90;;;16.10;100.00;101049.63;5222923;28;20067;-47
2023/07/06 02:22:10;;;;;;;;;;;15.80;99.90;;;16.07;100.00;101046.97;5223157;28;20095;-47
2023/07/06 02:24:43;;;;;;;2.88;1.30;;;15.80;99.90;;;16.06;100.00;101045.19;5223126;28;19924;-47
2023/07/06 02:27:16;;;;;;;2.83;1.50;;;15.80;99.90;;;16.01;100.00;101045.13;5222564;28;20052;-47
2023/07/06 02:29:48;;;;;;;3.15;1.50;;;15.70;99.90;;;15.97;100.00;101045.91;5222377;28;20040;-47
2023/07/06 02:32:21;;;;;;;1.80;1.67;;;15.70;99.90;;;15.95;100.00;101048.53;5214632;28;20047;-47
2023/07/06 02:34:54;;;;;;;1.48;1.27;;;15.70;99.90;;;15.94;100.00;101052.00;5222566;28;20049;-48
2023/07/06 02:37:28;;;;;;;1.75;1.17;;;15.70;99.90;;;15.94;100.00;101045.88;5222096;28;20080;-47
2023/07/06 02:40:00;;;;;;;1.85;1.20;;;15.70;99.90;;;15.93;100.00;101054.63;5222004;28;20450;-47
2023/07/06 02:42:34;;;;;;;2.42;1.10;;;15.70;99.90;;;15.92;100.00;101053.75;5222342;28;20037;-47
2023/07/06 02:45:09;;;;;;;1.75;1.15;;;15.60;99.90;;;15.91;100.00;101059.88;5222453;28;20041;-48
2023/07/06 02:47:41;;;;;;;2.20;1.30;;;15.60;99.90;;;15.86;100.00;101053.63;5222185;28;20045;-47
2023/07/06 02:50:15;;;;;;;2.22;1.20;;;15.60;99.90;;;15.81;100.00;101055.28;5222133;28;20044;-47
2023/07/06 02:52:48;;;;;;;1.75;1.15;;;15.50;99.90;;;15.72;100.00;101063.03;5222547;28;20102;-47
2023/07/06 02:55:22;;;;;;;1.92;1.42;;;15.50;99.90;;;15.67;100.00;101059.41;5223759;28;20410;-47
2023/07/06 02:57:55;;;;;;;2.70;1.30;;;15.40;99.90;;;15.62;100.00;101066.31;5222003;28;20514;-47
2023/07/06 03:00:29;;;;;;;4.47;1.67;;;15.40;99.90;;;15.57;100.00;101065.31;5222251;28;20052;-47
2023/07/06 03:03:02;;;;;;;1.58;1.17;;;15.30;99.90;;;15.52;100.00;101067.88;5221811;28;20644;-47
2023/07/06 03:05:36;;;;;;;2.75;1.60;;;15.20;99.90;;;15.53;100.00;101061.75;5222301;28;20053;-47
2023/07/06 03:08:09;;;;;;;2.30;1.50;;;15.30;99.90;;;15.47;100.00;101065.16;5221620;28;20045;-47
2023/07/06 03:10:44;;;;;;;3.08;1.63;;;15.20;99.90;;;15.46;100.00;101063.38;5221940;28;20045;-48
2023/07/06 03:13:17;;;;;;;2.38;1.58;;;15.20;99.90;;;15.45;100.00;101065.97;5223281;28;20414;-47
2023/07/06 03:15:52;;;;;;;2.22;1.58;;;15.20;99.90;;;15.44;100.00;101059.81;5222023;28;20055;-47
2023/07/06 03:18:24;;;;;;;2.42;1.60;;;15.20;99.90;;;15.41;100.00;101075.53;5221884;28;20037;-47
2023/07/06 03:20:58;;;;;;;2.20;1.42;;;15.20;99.90;;;15.36;100.00;101066.69;5221548;28;20465;-48
2023/07/06 03:23:31;;;;;;;2.65;1.30;;;15.10;99.90;;;15.34;100.00;101065.78;5222348;28;20128;-45
2023/07/06 03:26:03;;;;;;;2.97;1.40;;;15.10;99.90;;;15.29;100.00;101063.91;5222623;28;20045;-46
2023/07/06 03:28:36;;;;;;;2.72;1.58;;;15.10;99.90;;;15.26;100.00;101058.56;5223813;28;20063;-46
2023/07/06 03:31:14;;;;;;;2.25;1.42;;;15.00;99.90;;;15.23;100.00;101072.53;5222423;28;20061;-46
2023/07/06 03:33:46;;;;;;;3.42;1.30;;;15.00;99.90;;;15.23;100.00;101074.28;5222053;28;20061;-46
2023/07/06 03:36:20;;;;;;;1.30;1.20;;;15.00;99.90;;;15.20;100.00;101080.38;5223566;28;20048;-46
2023/07/06 03:38:57;;;;;;;2.30;1.30;;;15.00;99.90;;;15.19;100.00;101081.19;5222340;28;20140;-46
2023/07/06 03:41:29;;;;;;;2.42;1.40;;;15.00;99.90;;;15.17;100.00;101080.28;5222007;28;20048;-46
2023/07/06 03:44:01;;;;;;;3.15;1.60;;;14.90;99.90;;;15.14;100.00;101085.50;5222306;28;20128;-45
2023/07/06 03:46:35;;;;;;;3.30;1.48;;;14.90;99.90;;;15.11;100.00;101090.66;5222107;28;20537;-46
2023/07/06 03:49:10;;;;;;;2.15;1.30;;;14.90;99.90;;;15.09;100.00;101081.88;5221538;28;20157;-46
2023/07/06 03:51:46;;;;;;;3.97;1.70;;;14.80;99.90;;;15.07;100.00;101084.47;5221866;28;20064;-46
2023/07/06 03:54:18;;;;;;;2.38;1.67;;;14.80;99.90;;;15.08;100.00;101085.38;5222078;28;20072;-48
2023/07/06 03:56:53;;;;;;;3.97;2.13;;;14.80;99.90;;;15.11;100.00;101080.16;5222364;28;20083;-47
2023/07/06 03:59:27;;;;;;;;;;;14.80;99.90;;;15.11;100.00;101077.53;5222566;28;20094;-47
2023/07/06 04:02:00;;;;;;;4.38;1.70;;;14.90;99.90;;;15.15;100.00;101089.88;5222039;28;19924;-46
2023/07/06 04:04:32;;;;;;;2.90;1.65;;;14.90;99.90;;;15.16;100.00;101086.41;5222063;28;20514;-46
2023/07/06 04:07:10;;;;;;;3.67;1.55;;;14.90;99.90;;;15.18;100.00;101092.56;5221529;28;20567;-46
2023/07/06 04:09:44;;;;;;;3.13;1.67;;;14.90;99.90;;;15.17;100.00;101091.69;5221930;28;20048;-47
2023/07/06 04:12:16;;;;;;;2.08;1.33;;;14.90;99.90;;;15.16;100.00;101092.53;5222499;28;20429;-45
2023/07/06 04:14:49;;;;;;;3.70;1.63;;;14.90;99.90;;;15.15;100.00;101097.78;5221970;28;20102;-47
2023/07/06 04:17:21;;;;;;;3.15;1.42;;;14.90;99.90;;;15.16;100.00;101105.66;5221866;28;20130;-45
2023/07/06 04:19:56;;;;;;;2.90;1.63;;;14.90;99.90;;;15.19;100.00;101094.34;5221840;28;20103;-47
2023/07/06 04:22:29;;;;;;;1.80;1.38;;;14.90;99.90;;;15.24;100.00;101097.94;5221522;28;20072;-47
2023/07/06 04:25:02;;;;;;;2.00;1.60;;;15.00;99.90;;;15.28;100.00;101093.66;5221791;28;20445;-46
2023/07/06 04:27:35;;;;;;;2.42;1.35;;;15.00;99.90;;;15.33;100.00;101100.78;5221766;28;20049;-46
2023/07/06 04:30:09;;;;;;;4.20;1.80;;;15.10;99.90;;;15.38;100.00;101095.59;5221798;28;20056;-46
2023/07/06 04:32:42;;;;;;;1.65;1.15;;;15.10;99.90;;;15.42;100.00;101103.56;5221791;28;20102;-47
2023/07/06 04:35:14;;;;;;;2.00;1.38;;;15.20;99.90;;;15.46;100.00;101097.53;5221484;28;20498;-45
2023/07/06 04:37:48;;;;;;;1.92;1.38;;;15.20;99.90;;;15.53;100.00;101106.44;5221128;28;20049;-47
2023/07/06 04:40:21;;;;;;;5.32;1.92;;;15.30;99.90;;;15.57;100.00;101113.50;5221872;28;20111;-46
2023/07/06 04:42:55;;;;;;;4.30;1.55;;;15.30;99.90;;;15.62;100.00;101105.75;5221694;28;20124;-47
2023/07/06 04:45:28;;;;;;;4.43;1.65;;;15.40;99.90;;;15.64;100.00;101106.66;5221685;28;20048;-46
2023/07/06 04:48:00;;;;;;;5.05;2.00;;;15.40;99.90;;;15.63;100.00;101112.75;5221503;28;20100;-46
2023/07/06 04:50:33;;;;;;;3.15;1.50;;;15.40;99.90;;;15.64;100.00;101104.91;5221472;28;20073;-47
2023/07/06 04:53:10;;;;;;;5.63;2.28;;;15.40;99.90;;;15.73;100.00;101112.09;5221706;28;20485;-46
2023/07/06 04:55:43;;;;;;;3.45;1.70;;;15.50;99.90;;;15.89;100.00;101111.50;5221580;28;20048;-46
2023/07/06 04:58:15;;;;;;;3.95;1.92;;;15.60;99.90;;;16.09;100.00;101113.59;5221547;28;20092;-47
2023/07/06 05:00:50;;;;;;;5.00;1.75;;;15.80;99.90;;;16.36;100.00;101119.31;5222231;28;20041;-46
2023/07/06 05:03:22;;;;;;;5.43;1.95;;;16.10;99.90;;;16.63;100.00;101112.75;5225422;28;20410;-46
2023/07/06 05:05:55;;;;;;;3.58;1.83;;;16.30;99.90;;;16.80;100.00;101116.53;5225054;28;20136;-48
2023/07/06 05:08:29;;;;;;;3.95;1.70;;;16.50;99.90;;;16.92;100.00;101111.44;5224912;28;20045;-46
2023/07/06 05:11:05;;;;;;;4.97;2.15;;;16.70;99.90;;;17.01;100.00;101122.09;5225212;28;20052;-46
2023/07/06 05:13:37;;;;;;;4.40;1.83;;;16.80;99.90;;;17.12;100.00;101124.00;5225264;28;20147;-46
2023/07/06 05:16:10;;;;;;;3.00;2.00;;;16.90;99.90;;;17.18;100.00;101129.34;5225084;28;20083;-46
2023/07/06 05:18:43;;;;;;;4.32;1.77;;;17.00;99.90;;;17.33;100.00;101124.25;5225311;28;20049;-47
2023/07/06 05:21:18;;;;;;;3.60;1.85;;;17.10;99.90;;;17.50;99.49;101125.38;5225162;28;20057;-46
2023/07/06 05:23:52;;;;;;;2.83;1.70;;;17.20;99.90;;;17.77;97.99;101122.19;5225061;28;20044;-47
2023/07/06 05:26:24;;;;;;;2.60;1.58;;;17.40;99.90;;;18.04;96.31;101126.84;5224867;28;20051;-46
2023/07/06 05:28:57;;;;;;;3.53;1.40;;;17.60;99.90;;;18.33;95.07;101127.13;5224851;28;20072;-46
2023/07/06 05:31:29;;;;;;;3.50;1.55;;;17.90;99.90;;;18.61;92.73;101125.56;5224641;28;20052;-47
2023/07/06 05:34:01;;;;;;;5.53;1.65;;;18.10;99.90;;;18.90;91.76;101133.69;5224663;28;20052;-47
2023/07/06 05:36:36;;;;;;;2.13;1.40;;;18.40;99.90;;;19.15;86.68;101132.09;5224399;28;20049;-46
2023/07/06 05:39:10;;;;;;;3.38;1.30;;;18.60;99.90;;;19.39;83.37;101127.81;5224707;28;20123;-47
2023/07/06 05:41:43;;;;;;;3.20;1.35;;;18.80;98.80;;;19.65;83.08;101136.75;5224539;28;20502;-47
2023/07/06 05:44:15;;;;;;;4.40;1.75;;;19.00;98.50;;;19.90;81.83;101126.22;5224523;28;20566;-46
2023/07/06 05:46:48;;;;;;;3.65;1.60;;;19.20;98.10;;;20.11;80.39;101142.13;5224526;28;20056;-46
2023/07/06 05:49:20;;;;;;;3.40;1.33;;;19.50;97.40;;;20.12;78.16;101141.25;5224217;28;20049;-47
2023/07/06 05:51:52;;;;;;;3.28;1.08;;;19.60;96.20;;;20.20;78.46;101143.88;5224297;28;20095;-47
2023/07/06 05:54:26;;;;;;;4.45;1.50;;;19.60;96.10;;;20.33;78.04;101145.66;5224226;28;20053;-46
2023/07/06 05:57:02;;;;;;;3.22;1.27;;;19.70;95.90;;;20.49;77.56;101146.59;5224189;28;20045;-47
2023/07/06 05:59:36;;;;;;;3.72;1.30;;;19.90;95.70;;;20.71;76.97;101140.38;5224105;28;20053;-47
2023/07/06 06:02:12;;;;;;;2.67;1.00;;;20.00;95.40;;;20.96;75.84;101148.28;5223943;28;20040;-47
2023/07/06 06:04:45;;;;;;;2.92;1.33;;;20.30;94.90;;;21.12;73.96;101136.75;5224127;28;20143;-46
2023/07/06 06:07:19;;;;;;;2.88;1.20;;;20.40;93.90;;;21.30;73.42;101147.34;5223968;28;20045;-46
2023/07/06 06:09:52;;;;;;;2.13;1.23;;;20.60;93.60;;;21.47;72.77;101144.63;5224213;28;20490;-47
2023/07/06 06:12:27;;;;;;;2.72;1.23;;;20.70;93.10;;;21.65;71.38;101152.50;5223592;28;20044;-47
2023/07/06 06:15:01;;;;;;;2.83;1.27;;;20.90;92.50;;;21.81;70.29;101155.06;5223981;28;20460;-47
2023/07/06 06:17:37;;;;;;;2.35;0.77;;;21.10;91.90;;;21.91;69.65;101165.63;5224043;28;20047;-46
2023/07/06 06:20:10;;;;;;;2.83;0.80;;;21.20;91.40;;;22.03;69.68;101155.81;5223618;28;20041;-48
2023/07/06 06:22:42;;;;;;;3.13;1.30;;;21.30;91.20;;;22.17;69.46;101160.19;5223608;28;20124;-47
2023/07/06 06:25:16;;;;;;;2.42;1.08;;;21.50;91.00;;;22.21;68.12;101166.34;5223528;28;20410;-47
2023/07/06 06:27:49;;;;;;;2.33;1.00;;;21.50;90.30;;;22.28;68.01;101168.06;5223525;28;20525;-46
2023/07/06 06:30:21;;;;;;;1.63;0.80;;;21.60;90.10;;;22.41;67.25;101167.06;5223418;28;20052;-46
2023/07/06 06:32:56;;;;;;;2.92;1.20;;;21.70;89.30;;;22.56;66.26;101171.38;5223426;28;20045;-47
2023/07/06 06:35:31;;;;;;;3.90;1.05;;;21.80;87.90;;;22.69;65.01;101169.47;5223303;28;20143;-47
2023/07/06 06:38:05;;;;;;;2.03;0.95;;;21.90;86.40;;;22.77;64.77;101167.66;5223458;28;20457;-48
2023/07/06 06:40:39;;;;;;;2.80;1.00;;;22.00;85.70;;;22.81;64.53;101180.00;5223628;28;20052;-46
2023/07/06 06:43:12;;;;;;;2.92;1.13;;;22.10;85.20;;;22.89;64.27;101178.19;5223365;28;20510;-46
2023/07/06 06:45:44;;;;;;;1.88;1.10;;;22.20;84.50;;;22.95;64.19;101186.13;5223463;28;20098;-46
2023/07/06 06:48:17;;;;;;;3.47;1.00;;;22.20;84.20;;;23.00;64.75;101186.94;5223043;28;20513;-46
2023/07/06 06:50:49;;;;;;;3.53;0.93;;;22.30;84.60;;;23.12;64.33;101179.72;5223003;28;20051;-47
2023/07/06 06:53:26;;;;;;;2.10;0.80;;;22.30;83.80;;;23.16;63.23;101181.47;5224858;28;20095;-48
2023/07/06 06:55:59;;;;;;;4.22;1.27;;;22.40;82.60;;;23.28;63.57;101186.66;5223519;28;20072;-47
2023/07/06 06:58:32;;;;;;;2.03;0.98;;;22.50;83.00;;;23.44;63.00;101190.88;5222820;28;20045;-46
2023/07/06 07:01:08;;;;;;;3.03;0.80;;;22.70;82.10;;;23.62;62.16;101186.28;5222841;28;20502;-47
2023/07/06 07:03:45;;;;;;;2.78;1.02;;;22.80;81.00;;;23.82;61.92;101192.22;5222736;28;20502;-46
2023/07/06 07:06:17;;;;;;;2.28;0.80;;;23.00;80.90;;;24.02;61.18;101187.50;5222973;28;20064;-46
2023/07/06 07:08:50;;;;;;;3.08;1.05;;;23.20;80.00;;;24.19;60.25;101191.66;5222819;28;20037;-48
2023/07/06 07:11:27;;;;;;;2.47;1.10;;;23.40;78.60;;;24.28;60.02;101195.09;5222621;28;20052;-44
2023/07/06 07:13:59;;;;;;;3.47;1.15;;;23.40;78.00;;;24.33;59.50;101192.38;5222745;28;20094;-46
2023/07/06 07:16:34;;;;;;;3.30;0.90;;;23.50;77.10;;;24.42;59.75;101192.25;5222538;28;20395;-46
2023/07/06 07:19:06;;;;;;;1.70;0.90;;;23.60;77.10;;;24.44;60.42;101194.88;5221668;28;20037;-47
2023/07/06 07:21:42;;;;;;;2.42;0.80;;;23.60;77.40;;;24.50;59.69;101194.78;5222429;28;20131;-49
2023/07/06 07:24:15;;;;;;;5.53;1.13;;;23.70;76.60;;;24.52;59.69;101199.19;5222278;28;20163;-46
2023/07/06 07:26:49;;;;;;;2.35;0.82;;;23.70;76.70;;;24.48;59.09;101196.59;5222476;28;20052;-45
2023/07/06 07:29:25;;;;;;;2.83;0.88;;;23.70;75.80;;;24.40;59.51;101202.06;5222628;28;20037;-48
2023/07/06 07:31:57;;;;;;;2.47;0.90;;;23.60;75.60;;;24.41;59.76;101198.47;5222316;28;20045;-47
2023/07/06 07:34:29;;;;;;;3.30;0.90;;;23.60;76.10;;;24.38;59.44;101197.63;5219634;28;20502;-46
2023/07/06 07:37:02;;;;;;;2.70;0.82;;;23.60;75.60;;;24.43;59.71;101199.31;5221952;28;20045;-46
2023/07/06 07:39:38;;;;;;;2.17;0.95;;;23.60;75.80;;;24.55;59.50;101199.13;5222406;28;20049;-46
2023/07/06 07:42:13;;;;;;;2.15;0.77;;;23.70;75.70;;;24.61;58.77;101203.47;5222265;28;20520;-46
2023/07/06 07:44:46;;;;;;;3.72;0.90;;;23.70;74.90;;;24.60;58.53;101196.41;5222166;28;20461;-47
2023/07/06 07:47:19;;;;;;;2.15;0.80;;;23.70;74.50;;;24.58;58.41;101199.09;5221945;28;20075;-47
2023/07/06 07:49:51;;;;;;;1.80;0.65;;;23.70;74.30;;;24.59;58.43;101200.84;5222020;28;20473;-46
2023/07/06 07:52:23;;;;;;;1.75;0.82;;;23.60;74.20;;;24.70;58.41;101197.09;5221730;28;20037;-46
2023/07/06 07:54:56;;;;;;;1.60;0.73;;;23.70;74.40;;;24.82;58.20;101197.78;5219799;28;20045;-47
2023/07/06 07:57:30;;;;;;;1.98;0.80;;;23.80;74.40;;;24.95;57.86;101200.22;5221923;28;20044;-46
2023/07/06 08:00:04;;;;;;;1.02;0.68;;;23.80;73.80;;;24.95;57.45;101203.78;5222353;28;20045;-46
2023/07/06 08:02:46;;;;;;;1.60;0.90;;;23.80;73.40;;;24.94;57.56;101211.81;5223048;28;20088;-46
2023/07/06 08:05:18;;;;;;;1.42;0.55;;;23.80;73.20;;;25.16;57.79;101208.72;5220646;28;20518;-46
2023/07/06 08:07:51;;;;;;;1.50;0.80;;;24.00;73.70;;;25.52;57.20;101208.06;5222181;28;20056;-47
2023/07/06 08:10:23;;;;;;;1.77;0.90;;;24.20;73.60;;;25.76;55.97;101210.25;5221909;28;20041;-47
2023/07/06 08:12:57;;;;;;;2.38;0.88;;;24.30;72.50;;;25.90;56.19;101207.28;5222140;28;20395;-46
2023/07/06 08:15:29;;;;;;;2.30;0.60;;;24.40;72.50;;;26.13;55.10;101210.28;5221967;28;20057;-47
2023/07/06 08:18:03;;;;;;;2.25;1.00;;;24.60;71.60;;;26.54;53.93;101204.91;5222667;28;20272;-48
2023/07/06 08:20:36;;;;;;;1.30;0.70;;;24.80;70.80;;;27.00;52.79;101207.31;5221820;28;20041;-47
2023/07/06 08:23:13;;;;;;;2.72;0.70;;;25.00;69.60;;;27.54;51.86;101212.06;5221772;28;20053;-48
2023/07/06 08:25:46;;;;;;;1.92;0.60;;;25.30;69.20;;;28.03;51.41;101210.63;5221842;28;20144;-48
2023/07/06 08:28:22;;;;;;;1.15;0.60;;;25.50;68.60;;;28.65;50.25;101213.13;5221693;28;20061;-49
2023/07/06 08:30:54;;;;;;;1.30;0.68;;;25.90;68.20;;;29.44;48.91;101210.34;5221922;28;20040;-48
2023/07/06 08:33:27;;;;;;;1.20;0.73;;;26.30;67.20;;;30.23;47.41;101219.00;5222025;28;20096;-48
2023/07/06 08:36:01;;;;;;;1.73;0.80;;;26.70;66.20;;;30.88;46.17;101223.47;5222084;28;20049;-48
2023/07/06 08:38:33;;;;;;;0.75;0.52;;;27.00;65.30;;;31.64;44.72;101230.00;5224717;28;20055;-48
2023/07/06 08:41:18;;;;;;;2.25;0.77;;;27.30;64.10;;;32.71;42.84;101218.59;5225271;28;20517;-48
2023/07/06 08:43:55;;;;;;;2.63;0.80;;;28.00;62.40;;;33.81;41.01;101219.06;5217906;28;20052;-47
2023/07/06 08:46:31;;;;;;;2.25;0.55;;;28.80;60.60;;;34.71;39.79;101227.44;5224872;28;20274;-48
2023/07/06 08:49:10;;;;;;;1.58;0.70;;;29.60;59.20;;;35.49;38.55;101221.84;5224857;28;20130;-47
2023/07/06 08:51:46;;;;;;;1.45;0.63;;;30.30;57.10;;;35.93;37.29;101223.56;5225199;28;20048;-47
2023/07/06 08:54:22;;;;;;;1.15;0.45;;;30.90;55.60;;;36.19;36.81;101217.34;5223296;28;20053;-48
2023/07/06 08:56:56;;;;;;;2.42;0.68;;;31.30;54.20;;;36.67;35.90;101215.06;5224615;28;20399;-48
2023/07/06 08:59:39;;;;;;;1.60;0.60;;;31.90;53.10;;;36.82;35.16;101223.97;5222401;28;20045;-48
2023/07/06 09:02:18;;;;;;;1.33;0.60;;;32.20;51.70;;;37.06;34.99;101221.47;5225120;28;20056;-47
2023/07/06 09:04:53;;;;;;;2.35;0.50;;;32.40;51.40;;;37.52;34.91;101212.78;5224866;28;20398;-48
2023/07/06 09:07:34;;;;;;;1.98;0.52;;;32.80;51.30;;;37.33;34.04;101216.81;5221983;28;20049;-48
2023/07/06 09:10:13;;;;;;;2.45;0.75;;;32.90;49.80;;;37.16;34.22;101209.81;5224469;28;20090;-45
2023/07/06 09:12:46;;;;;;;1.10;0.45;;;32.90;49.60;;;37.54;34.34;101217.13;5216546;28;20064;-45
2023/07/06 09:15:26;;;;;;;0.95;0.50;;;33.00;49.70;;;37.97;33.45;101214.91;5223484;28;20052;-48
2023/07/06 09:18:02;;;;;;;1.38;0.70;;;33.40;49.00;;;38.16;33.27;101219.00;5224934;28;20047;-48
2023/07/06 09:20:36;;;;;;;0.57;0.50;;;33.60;48.70;;;37.85;33.27;101210.38;5224468;28;20071;-51
2023/07/06 09:23:14;;;;;;;;;;;33.50;48.30;;;37.37;33.50;101210.19;5224743;28;20052;-49
2023/07/06 09:25:49;;;;;;;1.65;0.70;;;33.30;48.10;;;37.12;34.20;101204.72;5234348;28;19928;-49
2023/07/06 09:28:26;;;;;;;1.15;0.60;;;33.10;48.60;;;36.86;34.09;101201.06;5218786;28;20406;-48
2023/07/06 09:31:15;;;;;;;2.13;0.60;;;33.00;48.30;;;36.24;34.01;101207.03;5223672;28;20107;-50
2023/07/06 09:33:53;;;;;;;0.88;0.50;;;32.80;47.90;;;35.59;35.55;101212.16;5217092;28;20529;-50
2023/07/06 09:36:26;;;;;;;1.35;0.70;;;32.50;48.50;;;35.07;36.35;101205.41;5224705;28;20045;-50
2023/07/06 09:39:04;;;;;;;1.60;0.77;;;32.30;48.90;;;34.50;37.14;101209.78;5224439;28;20063;-52
2023/07/06 09:41:45;;;;;;;1.23;0.60;;;32.10;49.10;;;33.55;38.54;101206.97;5223298;28;20045;-54
2023/07/06 09:44:27;;;;;;;1.33;0.70;;;31.60;49.80;;;32.40;39.39;101204.81;5222693;28;20494;-53
2023/07/06 09:47:04;;;;;;;0.82;0.47;;;30.90;49.90;;;31.51;40.14;101204.59;5221279;28;20053;-52
2023/07/06 09:49:49;;;;;;;1.83;0.50;;;30.20;50.40;;;30.69;41.77;101201.00;5222785;28;20140;-51
2023/07/06 09:52:22;;;;;;;2.53;0.75;;;29.50;51.30;;;30.31;42.74;101195.34;5223214;28;20053;-45
2023/07/06 09:55:01;;;;;;;1.63;0.50;;;29.20;52.30;;;29.90;42.74;101186.25;5231978;28;20049;-46
2023/07/06 09:57:44;;;;;;;3.05;0.80;;;28.80;52.00;;;29.65;42.66;101183.63;5237375;28;20041;-46
2023/07/06 10:00:22;;;;;;;1.70;0.65;;;28.50;51.90;;;29.13;42.98;101190.91;5223609;28;20056;-46
2023/07/06 10:03:03;;;;;;;1.50;0.60;;;28.20;52.10;;;28.75;43.89;101195.78;5215387;28;20673;-46
2023/07/06 10:05:45;;;;;;;0.90;0.43;;;27.90;52.90;;;28.41;45.34;101190.66;5212457;28;20053;-46
2023/07/06 10:08:24;;;;;;;0.93;0.40;;;27.60;53.80;;;28.16;46.98;101193.22;5218548;28;20045;-46
2023/07/06 10:11:13;;;;;;;1.05;0.50;;;27.30;55.20;;;28.29;47.03;101196.41;5221990;28;20057;-45
2023/07/06 10:13:53;;;;;;;1.30;0.50;;;27.30;55.70;;;28.48;46.79;101188.66;5236457;28;20071;-45
2023/07/06 10:16:42;;;;;;;1.58;0.65;;;27.40;55.70;;;28.54;45.46;101194.69;5223213;28;20073;-46
2023/07/06 10:19:25;;;;;;;0.85;0.50;;;27.40;54.60;;;28.59;45.41;101191.88;5222792;28;20137;-46
2023/07/06 10:22:12;;;;;;;1.02;0.50;;;27.50;54.70;;;28.65;44.72;101189.84;5209077;28;20049;-46
2023/07/06 10:24:54;;;;;;;1.17;0.60;;;27.50;54.10;;;28.67;44.91;101184.44;5219490;28;20045;-46
2023/07/06 10:27:35;;;;;;;1.20;0.70;;;27.50;54.20;;;28.74;45.00;101183.28;5236676;28;20120;-46
2023/07/06 10:30:20;;;;;;;2.47;0.60;;;27.60;54.30;;;28.85;45.97;101185.63;5214781;28;20049;-47
2023/07/06 10:32:57;;;;;;;0.68;0.50;;;27.70;55.20;;;28.76;45.96;101181.47;5216720;28;20049;-46
2023/07/06 10:35:35;;;;;;;1.15;0.50;;;27.70;54.80;;;28.63;46.20;101182.81;5214804;28;20135;-46
2023/07/06 10:38:11;;;;;;;1.27;0.75;;;27.60;55.10;;;28.51;46.43;101186.78;5222862;28;20052;-46
2023/07/06 10:40:44;;;;;;;0.95;0.55;;;27.50;55.30;;;28.47;46.20;101192.28;5213998;28;20131;-45
2023/07/06 10:43:23;;;;;;;1.10;0.63;;;27.50;55.00;;;28.21;45.61;101187.72;5222811;28;20059;-46
2023/07/06 10:45:59;;;;;;;0.80;0.60;;;27.30;54.30;;;27.65;46.04;101193.00;5215154;28;20056;-45